Time;durP1;ratioP1;P1;durP2;ratioP2;P2;SDS_P1;SDS_P2;PMS_P1;PMS_P2;Temp;Humidity;BMP_temperature;BMP_pressure;BME280_temperature;BME280_humidity;BME280_pressure;Samples;Min_cycle;Max_cycle;Signal;HPM_P1;HPM_P2
2021/10/31 00:00:37;;;;;;;;;4.00;4.00;;;;;;;;6220988;22;45473;-80
2021/10/31 00:03:05;;;;;;;;;3.00;3.00;;;;;;;;6221753;22;45453;-79
2021/10/31 00:05:31;;;;;;;;;3.00;3.00;;;;;;;;6194955;22;45320;-80
2021/10/31 00:08:05;;;;;;;;;6.33;6.33;;;;;;;;6223179;22;45407;-80
2021/10/31 00:10:36;;;;;;;;;4.00;4.00;;;;;;;;6195644;22;47242;-79
2021/10/31 00:13:29;;;;;;;;;;;;;;;;;;;;;
2021/10/31 00:15:58;;;;;;;;;5.00;4.00;;;;;;;;6221256;22;69184;-79
2021/10/31 00:18:48;;;;;;;;;5.00;5.00;;;;;;;;6223450;22;45346;-81
2021/10/31 00:21:30;;;;;;;;;4.33;3.67;;;;;;;;6101338;23;45060;-80
2021/10/31 00:23:55;;;;;;;;;3.00;3.00;;;;;;;;6100724;23;45586;-80
2021/10/31 00:26:23;;;;;;;;;2.00;2.00;;;;;;;;6099885;23;45439;-80
2021/10/31 00:28:52;;;;;;;;;4.00;4.00;;;;;;;;6077195;23;45434;-80
2021/10/31 00:31:20;;;;;;;;;4.67;4.67;;;;;;;;6102144;23;45681;-81
2021/10/31 00:33:48;;;;;;;;;4.00;4.00;;;;;;;;6101278;23;45439;-81
2021/10/31 00:36:13;;;;;;;;;7.33;6.00;;;;;;;;6076638;23;45409;-81
2021/10/31 00:38:51;;;;;;;;;2.67;2.67;;;;;;;;6101477;23;45352;-81
2021/10/31 00:41:21;;;;;;;;;3.00;3.00;;;;;;;;6100332;23;46333;-80
2021/10/31 00:43:52;;;;;;;;;4.00;2.33;;;;;;;;6075941;23;45365;-81
2021/10/31 00:46:27;;;;;;;;;;;;;;;;;;;;;
2021/10/31 00:48:55;;;;;;;;;2.00;2.00;;;;;;;;6099652;23;65137;-81
2021/10/31 00:51:21;;;;;;;;;4.00;4.00;;;;;;;;6099171;23;45317;-81
2021/10/31 00:53:47;;;;;;;;;5.00;5.00;;;;;;;;6074452;23;45396;-81
2021/10/31 00:56:13;;;;;;;;;3.33;3.33;;;;;;;;6097221;23;45362;-81
2021/10/31 00:58:48;;;;;;;;;4.00;4.00;;;;;;;;6154863;22;45318;-80
2021/10/31 01:01:14;;;;;;;;;7.00;4.00;;;;;;;;6193769;22;46575;-81
2021/10/31 01:03:40;;;;;;;;;3.33;3.00;;;;;;;;6221999;22;45341;-81
2021/10/31 01:06:24;;;;;;;;;4.00;4.00;;;;;;;;6195760;22;45245;-81
2021/10/31 01:09:05;;;;;;;;;2.33;2.33;;;;;;;;6196079;22;45331;-81
2021/10/31 01:11:36;;;;;;;;;4.33;3.00;;;;;;;;6195690;22;46545;-81
2021/10/31 01:14:36;;;;;;;;;4.00;4.00;;;;;;;;6223714;22;45431;-81
2021/10/31 01:20:37;;;;;;;;;;;;;;;;;;;;;
2021/10/31 01:23:13;;;;;;;;;5.00;4.00;;;;;;;;6223567;22;75023;-80
2021/10/31 01:25:57;;;;;;;;;3.33;3.33;;;;;;;;6196615;22;44723;-80
2021/10/31 01:28:33;;;;;;;;;8.00;5.00;;;;;;;;6223918;22;45291;-80
2021/10/31 01:31:17;;;;;;;;;4.00;4.00;;;;;;;;6224649;22;45252;-80
2021/10/31 01:34:01;;;;;;;;;5.00;5.00;;;;;;;;6196973;22;47979;-80
2021/10/31 01:36:35;;;;;;;;;3.67;3.67;;;;;;;;6198847;22;45329;-81
2021/10/31 01:39:07;;;;;;;;;3.67;3.00;;;;;;;;6226824;22;45354;-81
2021/10/31 01:41:33;;;;;;;;;3.00;3.00;;;;;;;;6225658;22;45370;-81
2021/10/31 01:44:27;;;;;;;;;4.33;4.33;;;;;;;;6198584;22;47013;-81
2021/10/31 01:46:55;;;;;;;;;2.33;2.33;;;;;;;;6096999;23;45665;-80
2021/10/31 01:49:23;;;;;;;;;3.00;3.00;;;;;;;;6107362;23;45405;-81
2021/10/31 01:51:49;;;;;;;;;3.33;3.33;;;;;;;;6131233;23;45348;-81
2021/10/31 01:54:19;;;;;;;;;4.00;4.00;;;;;;;;6105831;23;46818;-81
2021/10/31 01:56:46;;;;;;;;;4.00;4.00;;;;;;;;6131239;23;45444;-81
2021/10/31 01:59:15;;;;;;;;;2.00;2.00;;;;;;;;6105459;23;45487;-81
2021/10/31 02:01:44;;;;;;;;;3.67;3.67;;;;;;;;6131314;23;45582;-82
2021/10/31 02:04:10;;;;;;;;;3.00;3.00;;;;;;;;6107703;23;47451;-83
2021/10/31 02:06:38;;;;;;;;;4.00;4.00;;;;;;;;6134063;23;45292;-82
2021/10/31 02:09:04;;;;;;;;;5.00;4.00;;;;;;;;6111756;23;44880;-82
2021/10/31 02:11:29;;;;;;;;;2.00;2.00;;;;;;;;6135814;23;45908;-82
2021/10/31 02:13:55;;;;;;;;;5.00;4.00;;;;;;;;6136098;23;45448;-81
2021/10/31 02:16:22;;;;;;;;;4.67;4.67;;;;;;;;6133809;23;45384;-82
2021/10/31 02:18:49;;;;;;;;;5.33;4.00;;;;;;;;6109936;23;45546;-82
2021/10/31 02:21:20;;;;;;;;;4.00;3.67;;;;;;;;6108342;23;45626;-83
2021/10/31 02:23:46;;;;;;;;;5.00;5.00;;;;;;;;6191530;22;46163;-82
2021/10/31 02:26:13;;;;;;;;;4.00;4.00;;;;;;;;6256515;22;45325;-82
2021/10/31 02:28:38;;;;;;;;;4.33;4.33;;;;;;;;6229586;22;44900;-82
2021/10/31 02:31:04;;;;;;;;;5.67;5.67;;;;;;;;6230306;22;45315;-82
2021/10/31 02:33:29;;;;;;;;;6.00;5.33;;;;;;;;6229786;22;46774;-82
2021/10/31 02:35:55;;;;;;;;;6.00;6.00;;;;;;;;6230099;22;45849;-81
2021/10/31 02:38:21;;;;;;;;;5.00;5.00;;;;;;;;6230731;22;45359;-82
2021/10/31 02:40:47;;;;;;;;;4.33;4.33;;;;;;;;6229733;22;45464;-83
2021/10/31 02:43:15;;;;;;;;;5.33;2.67;;;;;;;;6230681;22;46991;-82
2021/10/31 02:45:41;;;;;;;;;4.00;4.00;;;;;;;;6229316;22;45221;-83
2021/10/31 02:48:12;;;;;;;;;5.33;5.33;;;;;;;;6229771;22;45378;-81
2021/10/31 02:50:38;;;;;;;;;4.00;3.00;;;;;;;;6231194;22;44889;-82
2021/10/31 02:53:16;;;;;;;;;4.33;4.33;;;;;;;;6256433;22;45211;-82
2021/10/31 02:55:52;;;;;;;;;4.00;3.33;;;;;;;;6229941;22;45522;-82
2021/10/31 02:58:50;;;;;;;;;6.00;4.67;;;;;;;;6231249;22;44798;-82
2021/10/31 03:01:19;;;;;;;;;7.33;6.67;;;;;;;;6125353;23;44895;-82
2021/10/31 03:03:51;;;;;;;;;6.00;4.67;;;;;;;;6134056;23;45698;-82
2021/10/31 03:06:20;;;;;;;;;5.00;5.00;;;;;;;;6107919;23;45314;-82
2021/10/31 03:08:45;;;;;;;;;3.67;3.00;;;;;;;;6133787;23;45358;-82
2021/10/31 03:11:14;;;;;;;;;9.00;7.33;;;;;;;;6108935;23;45594;-82
2021/10/31 03:13:40;;;;;;;;;10.33;6.00;;;;;;;;6107299;23;47097;-82
2021/10/31 03:16:07;;;;;;;;;5.00;5.00;;;;;;;;6108057;23;45309;-82
2021/10/31 03:18:41;;;;;;;;;7.33;7.33;;;;;;;;6108941;23;45861;-83
2021/10/31 03:21:11;;;;;;;;;8.00;8.00;;;;;;;;6108548;23;45325;-82
2021/10/31 03:23:40;;;;;;;;;11.00;10.67;;;;;;;;6111336;23;46713;-82
2021/10/31 03:26:05;;;;;;;;;5.33;5.33;;;;;;;;6109731;23;45499;-82
2021/10/31 03:28:31;;;;;;;;;9.00;9.00;;;;;;;;6109270;23;45400;-81
2021/10/31 03:30:56;;;;;;;;;9.67;9.00;;;;;;;;6183806;22;45406;-82
2021/10/31 03:33:31;;;;;;;;;12.00;12.00;;;;;;;;6231785;22;46674;-82
2021/10/31 03:35:57;;;;;;;;;9.67;9.67;;;;;;;;6257988;22;45154;-82
2021/10/31 03:38:23;;;;;;;;;11.33;11.00;;;;;;;;6259149;22;44713;-82
2021/10/31 03:40:49;;;;;;;;;12.67;11.33;;;;;;;;6231593;22;45509;-82
2021/10/31 03:43:15;;;;;;;;;15.00;14.67;;;;;;;;6232197;22;46606;-82
2021/10/31 03:45:44;;;;;;;;;11.67;11.67;;;;;;;;6231911;22;45886;-82
2021/10/31 03:48:09;;;;;;;;;5.67;5.67;;;;;;;;6203194;22;45483;-82
2021/10/31 03:50:35;;;;;;;;;12.33;10.33;;;;;;;;6199848;22;45281;-82
2021/10/31 03:53:00;;;;;;;;;15.00;15.00;;;;;;;;6199459;22;46851;-81
2021/10/31 03:55:25;;;;;;;;;13.33;13.33;;;;;;;;6226991;22;45372;-82
2021/10/31 03:57:51;;;;;;;;;15.00;15.00;;;;;;;;6197723;22;45259;-81
2021/10/31 04:00:16;;;;;;;;;14.67;13.33;;;;;;;;6199418;22;45463;-81
2021/10/31 04:02:42;;;;;;;;;13.33;13.33;;;;;;;;6200061;22;46654;-81
2021/10/31 04:05:15;;;;;;;;;15.00;13.00;;;;;;;;6225373;22;45334;-82
2021/10/31 04:07:43;;;;;;;;;15.33;15.33;;;;;;;;6200618;22;45388;-83
2021/10/31 04:10:15;;;;;;;;;17.00;17.00;;;;;;;;6228490;22;44777;-83
2021/10/31 04:12:40;;;;;;;;;16.67;16.00;;;;;;;;6197958;22;47085;-82
2021/10/31 04:15:07;;;;;;;;;15.33;14.33;;;;;;;;6197307;22;45421;-82
2021/10/31 04:17:32;;;;;;;;;19.67;13.33;;;;;;;;6225757;22;45247;-82
2021/10/31 04:19:57;;;;;;;;;17.00;16.00;;;;;;;;6197116;22;45427;-82
2021/10/31 04:22:23;;;;;;;;;17.00;17.00;;;;;;;;6197543;22;46956;-83
2021/10/31 04:24:58;;;;;;;;;13.00;13.00;;;;;;;;6225213;22;45227;-82
2021/10/31 04:33:30;;;;;;;;;15.00;15.00;;;;;;;;6226081;22;44791;-82
2021/10/31 04:35:55;;;;;;;;;11.00;11.00;;;;;;;;6224250;22;44810;-82
2021/10/31 04:38:28;;;;;;;;;20.00;20.00;;;;;;;;6198121;22;44792;-82
2021/10/31 04:40:53;;;;;;;;;24.67;22.67;;;;;;;;6198932;22;45527;-82
2021/10/31 04:43:22;;;;;;;;;22.00;16.67;;;;;;;;6196647;22;46797;-82
2021/10/31 04:46:00;;;;;;;;;17.00;15.00;;;;;;;;6198836;22;45416;-82
2021/10/31 04:48:25;;;;;;;;;15.00;14.00;;;;;;;;6200107;22;44859;-83
2021/10/31 04:50:51;;;;;;;;;11.67;11.33;;;;;;;;6198776;22;45203;-83
2021/10/31 04:53:17;;;;;;;;;16.67;13.67;;;;;;;;6225399;22;45447;-82
2021/10/31 04:55:42;;;;;;;;;17.33;15.33;;;;;;;;6199151;22;45343;-83
2021/10/31 04:58:11;;;;;;;;;12.00;12.00;;;;;;;;6199559;22;45712;-82
2021/10/31 05:00:39;;;;;;;;;10.67;10.67;;;;;;;;6199572;22;45660;-82
2021/10/31 05:06:07;;;;;;;;;12.33;11.00;;;;;;;;6226685;22;45478;-82
2021/10/31 05:08:32;;;;;;;;;11.00;9.33;;;;;;;;6227188;22;45533;-82
2021/10/31 05:10:58;;;;;;;;;11.33;10.67;;;;;;;;6227740;22;44769;-82
2021/10/31 05:13:23;;;;;;;;;11.67;11.67;;;;;;;;6201111;22;48327;-82
2021/10/31 05:15:48;;;;;;;;;12.67;12.67;;;;;;;;6226253;22;45364;-81
2021/10/31 05:18:14;;;;;;;;;16.00;16.00;;;;;;;;6226227;22;44797;-82
2021/10/31 05:20:39;;;;;;;;;16.33;15.67;;;;;;;;6227197;22;45252;-81
2021/10/31 05:23:04;;;;;;;;;17.00;17.00;;;;;;;;6201711;22;47730;-82
2021/10/31 05:25:36;;;;;;;;;16.00;12.00;;;;;;;;6200981;22;45346;-82
2021/10/31 05:28:01;;;;;;;;;14.67;14.00;;;;;;;;6200068;22;45401;-82
2021/10/31 05:30:28;;;;;;;;;9.00;9.00;;;;;;;;6227772;22;45290;-82
2021/10/31 05:32:54;;;;;;;;;16.67;15.67;;;;;;;;6226061;22;45859;-82
2021/10/31 05:35:19;;;;;;;;;16.00;15.00;;;;;;;;6198764;22;44862;-82
2021/10/31 05:37:46;;;;;;;;;15.33;15.33;;;;;;;;6199757;22;45256;-82
2021/10/31 05:40:13;;;;;;;;;13.33;13.33;;;;;;;;6199583;22;45563;-82
2021/10/31 05:42:39;;;;;;;;;12.00;12.00;;;;;;;;6227165;22;45031;-81
2021/10/31 05:45:07;;;;;;;;;14.33;14.33;;;;;;;;6227895;22;44680;-81
2021/10/31 05:47:32;;;;;;;;;12.67;11.00;;;;;;;;6244712;22;45183;-81
2021/10/31 05:50:05;;;;;;;;;16.00;15.33;;;;;;;;6232641;22;45267;-81
2021/10/31 05:52:30;;;;;;;;;14.67;12.33;;;;;;;;6232365;22;45632;-81
2021/10/31 05:54:55;;;;;;;;;11.67;10.00;;;;;;;;6258166;22;45449;-82
2021/10/31 05:57:28;;;;;;;;;7.00;7.00;;;;;;;;6230732;22;44904;-82
2021/10/31 05:59:53;;;;;;;;;11.33;11.00;;;;;;;;6257398;22;44893;-82
2021/10/31 06:02:19;;;;;;;;;9.67;9.67;;;;;;;;6229772;22;46722;-82
2021/10/31 06:04:57;;;;;;;;;10.67;10.67;;;;;;;;6258978;22;45258;-82
2021/10/31 06:07:22;;;;;;;;;13.00;12.00;;;;;;;;6258373;22;45294;-82
2021/10/31 06:09:47;;;;;;;;;13.67;13.00;;;;;;;;6230187;22;45310;-82
2021/10/31 06:12:15;;;;;;;;;11.67;11.67;;;;;;;;6255931;22;47533;-82
2021/10/31 06:14:41;;;;;;;;;8.67;8.67;;;;;;;;6230830;22;45315;-83
2021/10/31 06:17:06;;;;;;;;;12.00;11.00;;;;;;;;6229218;22;45308;-82
2021/10/31 06:19:33;;;;;;;;;10.67;10.67;;;;;;;;6231568;22;45488;-82
2021/10/31 06:21:58;;;;;;;;;13.00;10.67;;;;;;;;6260607;22;46117;-82
2021/10/31 06:24:24;;;;;;;;;10.33;9.00;;;;;;;;6230914;22;45438;-82
2021/10/31 06:26:49;;;;;;;;;12.00;10.33;;;;;;;;6259890;22;44966;-82
2021/10/31 06:29:14;;;;;;;;;11.33;11.33;;;;;;;;6258680;22;45825;-82
2021/10/31 06:31:40;;;;;;;;;9.00;9.00;;;;;;;;6229108;22;46676;-82
2021/10/31 06:34:08;;;;;;;;;12.00;10.67;;;;;;;;6253188;22;45362;-82
2021/10/31 06:36:33;;;;;;;;;11.33;11.00;;;;;;;;6253031;22;45234;-81
2021/10/31 06:38:59;;;;;;;;;9.67;9.67;;;;;;;;6258780;22;45279;-82
2021/10/31 06:41:26;;;;;;;;;8.67;8.67;;;;;;;;6230699;22;47155;-82
2021/10/31 06:43:55;;;;;;;;;6.67;6.67;;;;;;;;6258259;22;45385;-81
2021/10/31 06:46:20;;;;;;;;;9.00;9.00;;;;;;;;6257662;22;45449;-80
2021/10/31 06:48:45;;;;;;;;;9.67;8.67;;;;;;;;6256612;22;45373;-82
2021/10/31 06:51:10;;;;;;;;;9.00;9.00;;;;;;;;6230929;22;46707;-81
2021/10/31 06:53:36;;;;;;;;;12.00;11.00;;;;;;;;6257942;22;45348;-81
2021/10/31 06:56:01;;;;;;;;;10.33;10.00;;;;;;;;6258317;22;45363;-81
2021/10/31 06:58:27;;;;;;;;;9.00;9.00;;;;;;;;6259012;22;45262;-81
2021/10/31 07:00:53;;;;;;;;;7.33;7.33;;;;;;;;6231233;22;48069;-81
2021/10/31 07:03:18;;;;;;;;;11.00;8.00;;;;;;;;6258103;22;45259;-81
2021/10/31 07:05:43;;;;;;;;;8.00;7.00;;;;;;;;6231374;22;45433;-81
2021/10/31 07:08:09;;;;;;;;;5.67;5.33;;;;;;;;6231310;22;45353;-82
2021/10/31 07:10:34;;;;;;;;;7.00;7.00;;;;;;;;6232154;22;47132;-81
2021/10/31 07:12:59;;;;;;;;;8.00;8.00;;;;;;;;6230742;22;45271;-82
2021/10/31 07:15:25;;;;;;;;;11.00;11.00;;;;;;;;6257125;22;45295;-82
2021/10/31 07:17:53;;;;;;;;;7.33;5.67;;;;;;;;6257713;22;44681;-82
2021/10/31 07:20:18;;;;;;;;;11.00;9.33;;;;;;;;6258371;22;45996;-82
2021/10/31 07:22:49;;;;;;;;;5.00;5.00;;;;;;;;6257332;22;45362;-81
2021/10/31 07:25:24;;;;;;;;;8.33;7.33;;;;;;;;6229796;22;45339;-82
2021/10/31 07:28:05;;;;;;;;;5.33;5.33;;;;;;;;6230155;22;45399;-82
2021/10/31 07:30:31;;;;;;;;;10.33;9.67;;;;;;;;6230774;22;48174;-81
2021/10/31 07:32:59;;;;;;;;;6.67;6.67;;;;;;;;6258191;22;45434;-82
2021/10/31 07:35:27;;;;;;;;;10.67;7.33;;;;;;;;6223459;22;45394;-81
2021/10/31 07:37:56;;;;;;;;;5.00;3.67;;;;;;;;6256033;22;44855;-81
2021/10/31 07:40:22;;;;;;;;;7.00;6.67;;;;;;;;6229405;22;47032;-81
2021/10/31 07:42:52;;;;;;;;;6.00;6.00;;;;;;;;6229361;22;45598;-83
2021/10/31 07:45:22;;;;;;;;;9.67;9.00;;;;;;;;6229275;22;45239;-82
2021/10/31 07:48:03;;;;;;;;;8.00;5.00;;;;;;;;6212695;22;44975;-82
2021/10/31 07:50:37;;;;;;;;;5.67;4.00;;;;;;;;6198630;22;47009;-82
2021/10/31 07:53:03;;;;;;;;;10.67;8.00;;;;;;;;6227545;22;44839;-82
2021/10/31 07:55:32;;;;;;;;;8.00;5.67;;;;;;;;6225488;22;44758;-82
2021/10/31 07:58:04;;;;;;;;;9.67;9.67;;;;;;;;6199611;22;45252;-82
2021/10/31 08:00:30;;;;;;;;;6.00;6.00;;;;;;;;6200549;22;46992;-82
2021/10/31 08:03:34;;;;;;;;;7.33;7.33;;;;;;;;6227221;22;45404;-82
2021/10/31 08:06:00;;;;;;;;;10.67;10.00;;;;;;;;6076573;23;45478;-82
2021/10/31 08:08:28;;;;;;;;;12.00;10.00;;;;;;;;6075220;23;44809;-82
2021/10/31 08:10:53;;;;;;;;;10.00;9.33;;;;;;;;6049829;23;46818;-82
2021/10/31 08:13:25;;;;;;;;;6.00;6.00;;;;;;;;6050856;23;45297;-82
2021/10/31 08:15:51;;;;;;;;;6.00;6.00;;;;;;;;6075284;23;44894;-82
2021/10/31 08:18:17;;;;;;;;;10.67;10.67;;;;;;;;6074023;23;45876;-82
2021/10/31 08:20:45;;;;;;;;;8.00;8.00;;;;;;;;6050130;23;46953;-84
2021/10/31 08:23:11;;;;;;;;;8.67;8.00;;;;;;;;6075077;23;45394;-82
2021/10/31 08:25:37;;;;;;;;;8.33;6.67;;;;;;;;6074127;23;45338;-82
2021/10/31 08:28:05;;;;;;;;;9.00;9.00;;;;;;;;6051651;23;45264;-82
2021/10/31 08:30:31;;;;;;;;;9.67;8.33;;;;;;;;6073427;23;47190;-81
2021/10/31 08:33:00;;;;;;;;;11.00;9.00;;;;;;;;6074535;23;45300;-82
2021/10/31 08:35:25;;;;;;;;;9.00;9.00;;;;;;;;6048048;23;45322;-81
2021/10/31 08:38:06;;;;;;;;;6.00;6.00;;;;;;;;6218477;22;45375;-82
2021/10/31 08:40:55;;;;;;;;;9.00;6.67;;;;;;;;6198596;22;46962;-82
2021/10/31 08:43:21;;;;;;;;;6.00;6.00;;;;;;;;6208470;22;45168;-82
2021/10/31 08:45:46;;;;;;;;;9.00;9.00;;;;;;;;6196327;22;45221;-82
2021/10/31 08:48:15;;;;;;;;;5.00;5.00;;;;;;;;6197581;22;45501;-82
2021/10/31 08:50:49;;;;;;;;;11.00;10.00;;;;;;;;6197629;22;45323;-82
2021/10/31 08:53:16;;;;;;;;;6.67;6.00;;;;;;;;6198097;22;44894;-82
2021/10/31 08:55:42;;;;;;;;;6.33;6.33;;;;;;;;6198935;22;45273;-82
2021/10/31 08:58:07;;;;;;;;;9.00;9.00;;;;;;;;6200055;22;45327;-82
2021/10/31 09:00:33;;;;;;;;;10.00;9.00;;;;;;;;6199391;22;47908;-82
2021/10/31 09:03:00;;;;;;;;;7.00;5.33;;;;;;;;6200636;22;46148;-82
2021/10/31 09:05:26;;;;;;;;;5.00;4.00;;;;;;;;6201700;22;45404;-82
2021/10/31 09:07:51;;;;;;;;;9.33;7.67;;;;;;;;6201399;22;45269;-82
2021/10/31 09:10:16;;;;;;;;;7.00;6.33;;;;;;;;6200599;22;46581;-82
2021/10/31 09:12:42;;;;;;;;;9.00;6.33;;;;;;;;6199036;22;45326;-82
2021/10/31 09:15:09;;;;;;;;;7.00;7.00;;;;;;;;6226536;22;44764;-82
2021/10/31 09:17:34;;;;;;;;;5.67;5.67;;;;;;;;6200117;22;45724;-82
2021/10/31 09:19:59;;;;;;;;;4.00;4.00;;;;;;;;6224897;22;45425;-82
2021/10/31 09:22:25;;;;;;;;;3.00;3.00;;;;;;;;6198203;22;45339;-82
2021/10/31 09:24:51;;;;;;;;;5.00;5.00;;;;;;;;6225530;22;45371;-82
2021/10/31 09:27:19;;;;;;;;;4.67;4.67;;;;;;;;6226733;22;45303;-82
2021/10/31 09:29:44;;;;;;;;;4.00;4.00;;;;;;;;6176383;22;47465;-81
2021/10/31 09:32:10;;;;;;;;;6.67;4.00;;;;;;;;6198610;22;45276;-82
2021/10/31 09:34:35;;;;;;;;;4.00;4.00;;;;;;;;6225357;22;45260;-82
2021/10/31 09:37:02;;;;;;;;;4.67;4.67;;;;;;;;6198936;22;45320;-82
2021/10/31 09:39:28;;;;;;;;;4.67;4.67;;;;;;;;6200714;22;46710;-83
2021/10/31 09:41:53;;;;;;;;;3.00;3.00;;;;;;;;6174801;22;45445;-82
2021/10/31 09:44:32;;;;;;;;;3.67;3.67;;;;;;;;6230383;22;45492;-82
2021/10/31 09:46:57;;;;;;;;;5.33;3.33;;;;;;;;6230859;22;45294;-82
2021/10/31 09:49:24;;;;;;;;;3.67;3.67;;;;;;;;6258007;22;46127;-82
2021/10/31 09:51:50;;;;;;;;;3.00;3.00;;;;;;;;6258227;22;45670;-83
2021/10/31 09:54:16;;;;;;;;;2.00;2.00;;;;;;;;6256987;22;45391;-82
2021/10/31 09:56:43;;;;;;;;;3.00;3.00;;;;;;;;6230854;22;45304;-82
2021/10/31 09:59:14;;;;;;;;;4.00;4.00;;;;;;;;6229535;22;46732;-82
2021/10/31 10:04:40;;;;;;;;;3.00;2.25;;;;;;;;6258978;22;44694;-83
2021/10/31 10:07:18;;;;;;;;;2.00;2.00;;;;;;;;6229977;22;44829;-83
2021/10/31 10:09:54;;;;;;;;;2.50;2.50;;;;;;;;6257719;22;45405;-82
2021/10/31 10:12:21;;;;;;;;;3.00;2.75;;;;;;;;6231849;22;45394;-83
2021/10/31 10:15:04;;;;;;;;;2.50;2.50;;;;;;;;6231744;22;45592;-82
2021/10/31 10:17:46;;;;;;;;;3.00;3.00;;;;;;;;6232182;22;44851;-83
2021/10/31 10:20:12;;;;;;;;;2.25;2.25;;;;;;;;6231447;22;45286;-82
2021/10/31 10:22:38;;;;;;;;;3.00;2.75;;;;;;;;6230988;22;46031;-82
2021/10/31 10:25:03;;;;;;;;;2.75;2.75;;;;;;;;6232277;22;45369;-83
2021/10/31 10:27:38;;;;;;;;;4.00;4.00;;;;;;;;6258521;22;45307;-82
2021/10/31 10:30:13;;;;;;;;;3.00;3.00;;;;;;;;6230327;22;46928;-83
2021/10/31 10:32:47;;;;;;;;;4.75;4.75;;;;;;;;6258569;22;45251;-83
2021/10/31 10:35:15;;;;;;;;;3.00;3.00;;;;;;;;6231695;22;45200;-82
2021/10/31 10:37:41;;;;;;;;;3.75;3.75;;;;;;;;6231850;22;45310;-82
2021/10/31 10:40:11;;;;;;;;;2.00;2.00;;;;;;;;6258791;22;45684;-82
2021/10/31 10:48:57;;;;;;;;;3.00;1.50;;;;;;;;6253970;22;45310;-82
2021/10/31 10:51:28;;;;;;;;;2.50;2.50;;;;;;;;6258562;22;45373;-82
2021/10/31 10:54:12;;;;;;;;;1.50;1.50;;;;;;;;6259380;22;44827;-82
2021/10/31 10:56:56;;;;;;;;;2.00;2.00;;;;;;;;6259366;22;45382;-82
2021/10/31 10:59:23;;;;;;;;;2.00;2.00;;;;;;;;6230661;22;44854;-81
2021/10/31 11:02:09;;;;;;;;;1.50;1.50;;;;;;;;6230702;22;46979;-82
2021/10/31 11:04:38;;;;;;;;;2.25;2.25;;;;;;;;6257065;22;45504;-82
2021/10/31 11:07:10;;;;;;;;;2.00;2.00;;;;;;;;6231027;22;45299;-82
2021/10/31 11:09:40;;;;;;;;;1.00;1.00;;;;;;;;6231699;22;45480;-82
2021/10/31 11:12:24;;;;;;;;;2.50;1.00;;;;;;;;6258828;22;45314;-83
2021/10/31 11:14:53;;;;;;;;;2.00;2.00;;;;;;;;6231017;22;45349;-82
2021/10/31 11:17:19;;;;;;;;;2.25;2.25;;;;;;;;6232046;22;45738;-82
2021/10/31 11:19:45;;;;;;;;;1.00;1.00;;;;;;;;6231766;22;45305;-82
2021/10/31 11:22:11;;;;;;;;;1.00;1.00;;;;;;;;6230691;22;47269;-82
2021/10/31 11:24:38;;;;;;;;;1.75;1.75;;;;;;;;6231417;22;45302;-82
2021/10/31 11:27:10;;;;;;;;;0.75;0.75;;;;;;;;6259851;22;44765;-82
2021/10/31 11:29:36;;;;;;;;;1.00;1.00;;;;;;;;6231929;22;44873;-82
2021/10/31 11:32:03;;;;;;;;;1.00;1.00;;;;;;;;6230276;22;45443;-82
2021/10/31 11:34:28;;;;;;;;;1.00;1.00;;;;;;;;6230725;22;44864;-82
2021/10/31 11:39:58;;;;;;;;;2.00;2.00;;;;;;;;6259161;22;45318;-82
2021/10/31 11:42:24;;;;;;;;;1.25;1.25;;;;;;;;6230102;22;46928;-82
2021/10/31 11:45:07;;;;;;;;;1.00;1.00;;;;;;;;6259726;22;45341;-82
2021/10/31 11:47:33;;;;;;;;;2.00;2.00;;;;;;;;6231712;22;45423;-82
2021/10/31 11:50:19;;;;;;;;;1.75;1.75;;;;;;;;6230424;22;45326;-81
2021/10/31 11:52:52;;;;;;;;;2.00;2.00;;;;;;;;6258190;22;45630;-82
2021/10/31 11:55:39;;;;;;;;;1.00;1.00;;;;;;;;6257772;22;44661;-82
2021/10/31 11:58:34;;;;;;;;;1.00;1.00;;;;;;;;6223325;22;45551;-82
2021/10/31 12:01:03;;;;;;;;;2.00;1.50;;;;;;;;6228124;22;44892;-82
2021/10/31 12:03:44;;;;;;;;;1.50;1.00;;;;;;;;6230567;22;45464;-82
2021/10/31 12:06:21;;;;;;;;;3.00;2.00;;;;;;;;6228255;22;44893;-82
2021/10/31 12:08:55;;;;;;;;;1.50;1.50;;;;;;;;6255871;22;45362;-83
2021/10/31 12:11:30;;;;;;;;;1.00;1.00;;;;;;;;6255167;22;44657;-83
2021/10/31 12:13:56;;;;;;;;;2.50;2.50;;;;;;;;6256370;22;45302;-82
2021/10/31 12:16:22;;;;;;;;;4.00;2.00;;;;;;;;6228523;22;45368;-82
2021/10/31 12:18:56;;;;;;;;;4.00;3.00;;;;;;;;6228558;22;45856;-83
2021/10/31 12:21:32;;;;;;;;;2.75;2.00;;;;;;;;6256581;22;45314;-83
2021/10/31 12:24:04;;;;;;;;;2.50;2.50;;;;;;;;6257338;22;45356;-83
2021/10/31 12:26:40;;;;;;;;;2.00;2.00;;;;;;;;6229714;22;45281;-82
2021/10/31 12:29:17;;;;;;;;;1.00;1.00;;;;;;;;6257412;22;44744;-82
2021/10/31 12:32:01;;;;;;;;;1.75;1.75;;;;;;;;6231180;22;45476;-82
2021/10/31 12:34:33;;;;;;;;;1.25;1.25;;;;;;;;6229227;22;47231;-82
2021/10/31 12:36:58;;;;;;;;;1.00;1.00;;;;;;;;6255821;22;45471;-82
2021/10/31 12:39:31;;;;;;;;;1.25;1.25;;;;;;;;6228284;22;45313;-82
2021/10/31 12:42:15;;;;;;;;;4.00;2.00;;;;;;;;6256436;22;45184;-82
2021/10/31 12:44:43;;;;;;;;;2.25;2.25;;;;;;;;6255932;22;45412;-82
2021/10/31 12:47:13;;;;;;;;;2.00;2.00;;;;;;;;6229360;22;45034;-81
2021/10/31 12:49:52;;;;;;;;;3.75;3.00;;;;;;;;6255597;22;44812;-81
2021/10/31 12:52:23;;;;;;;;;2.50;2.50;;;;;;;;6227929;22;45460;-82
2021/10/31 12:55:18;;;;;;;;;4.25;4.25;;;;;;;;6256141;22;45649;-82
2021/10/31 12:57:51;;;;;;;;;4.50;2.75;;;;;;;;6227772;22;45442;-83
2021/10/31 13:00:16;;;;;;;;;2.00;2.00;;;;;;;;6227558;22;45257;-82
2021/10/31 13:02:50;;;;;;;;;1.00;1.00;;;;;;;;6260008;22;45244;-83
2021/10/31 13:05:32;;;;;;;;;1.00;1.00;;;;;;;;6230025;22;47276;-83
2021/10/31 13:07:58;;;;;;;;;6.75;5.50;;;;;;;;6255859;22;45709;-82
2021/10/31 13:10:31;;;;;;;;;3.00;3.00;;;;;;;;6229998;22;44768;-82
2021/10/31 13:13:07;;;;;;;;;2.00;2.00;;;;;;;;6258269;22;45306;-81
2021/10/31 13:16:04;;;;;;;;;3.25;2.00;;;;;;;;6229569;22;46915;-82
2021/10/31 13:18:42;;;;;;;;;2.00;2.00;;;;;;;;6226016;22;44760;-83
2021/10/31 13:21:18;;;;;;;;;2.75;2.75;;;;;;;;6257215;22;44811;-83
2021/10/31 13:23:45;;;;;;;;;1.75;1.75;;;;;;;;6227186;22;44812;-83
2021/10/31 13:26:11;;;;;;;;;1.75;1.75;;;;;;;;6226892;22;47722;-83
2021/10/31 13:28:44;;;;;;;;;3.25;2.00;;;;;;;;6254518;22;45619;-82
2021/10/31 13:31:25;;;;;;;;;3.00;3.00;;;;;;;;6255455;22;45284;-83
2021/10/31 13:34:06;;;;;;;;;3.50;3.50;;;;;;;;6255344;22;44797;-83
2021/10/31 13:36:39;;;;;;;;;2.00;2.00;;;;;;;;6227297;22;46919;-83
2021/10/31 13:39:10;;;;;;;;;2.00;2.00;;;;;;;;6256215;22;44805;-82
2021/10/31 13:41:36;;;;;;;;;4.75;4.75;;;;;;;;6227092;22;45452;-82
2021/10/31 13:44:19;;;;;;;;;4.00;2.25;;;;;;;;6256338;22;45309;-83
2021/10/31 13:47:22;;;;;;;;;2.25;2.25;;;;;;;;6256474;22;45302;-82
2021/10/31 13:50:08;;;;;;;;;3.75;3.75;;;;;;;;6126671;23;45562;-82
2021/10/31 13:52:34;;;;;;;;;1.75;1.00;;;;;;;;6106972;23;45372;-82
2021/10/31 13:55:01;;;;;;;;;3.00;3.00;;;;;;;;6106975;23;45382;-82
2021/10/31 13:57:30;;;;;;;;;4.00;4.00;;;;;;;;6133906;23;45680;-82
2021/10/31 14:00:01;;;;;;;;;3.00;3.00;;;;;;;;6133084;23;44837;-82
2021/10/31 14:02:33;;;;;;;;;4.50;3.25;;;;;;;;6110453;23;45387;-82
2021/10/31 14:05:18;;;;;;;;;2.50;2.50;;;;;;;;6110322;23;45490;-83
2021/10/31 14:08:01;;;;;;;;;2.50;2.50;;;;;;;;6133377;23;45437;-82
2021/10/31 14:10:35;;;;;;;;;2.25;2.25;;;;;;;;6108513;23;45590;-83
2021/10/31 14:13:33;;;;;;;;;2.50;2.00;;;;;;;;6109201;23;45502;-83
2021/10/31 14:16:15;;;;;;;;;3.50;3.50;;;;;;;;6077580;23;45306;-83
2021/10/31 14:19:00;;;;;;;;;4.50;3.00;;;;;;;;6077258;23;46828;-83
2021/10/31 14:21:26;;;;;;;;;2.75;2.00;;;;;;;;6074572;23;44909;-83
2021/10/31 14:23:51;;;;;;;;;3.75;3.75;;;;;;;;6074937;23;45397;-82
2021/10/31 14:26:17;;;;;;;;;3.00;3.00;;;;;;;;6110800;23;45401;-82
2021/10/31 14:28:50;;;;;;;;;3.00;3.00;;;;;;;;6164501;23;45418;-81
2021/10/31 14:31:16;;;;;;;;;3.00;3.00;;;;;;;;6136765;23;45376;-82
2021/10/31 14:33:46;;;;;;;;;4.00;4.00;;;;;;;;6139273;23;45363;-82
2021/10/31 14:39:15;;;;;;;;;3.25;3.25;;;;;;;;6164976;23;45400;-81
2021/10/31 14:41:51;;;;;;;;;3.50;2.75;;;;;;;;6169211;22;45359;-81
2021/10/31 14:44:17;;;;;;;;;4.00;3.00;;;;;;;;6172144;22;45169;-82
2021/10/31 14:46:48;;;;;;;;;3.00;3.00;;;;;;;;6196451;22;45433;-82
2021/10/31 14:49:19;;;;;;;;;3.00;2.00;;;;;;;;6195691;23;46955;-82
2021/10/31 14:51:48;;;;;;;;;1.00;1.00;;;;;;;;6198796;23;45332;-81
2021/10/31 14:54:20;;;;;;;;;2.00;1.00;;;;;;;;6198600;23;45485;-82
2021/10/31 14:57:08;;;;;;;;;1.75;1.75;;;;;;;;6171874;23;44915;-82
2021/10/31 14:59:34;;;;;;;;;1.00;1.00;;;;;;;;6197557;23;47121;-82
2021/10/31 15:05:05;;;;;;;;;0.25;0.00;;;;;;;;6199861;23;45379;-82
2021/10/31 15:07:31;;;;;;;;;2.00;0.25;;;;;;;;6197367;22;45374;-82
2021/10/31 15:09:58;;;;;;;;;0.00;0.00;;;;;;;;6197689;22;45361;-82
2021/10/31 15:12:23;;;;;;;;;0.00;0.00;;;;;;;;6200247;22;45436;-83
2021/10/31 15:14:49;;;;;;;;;1.00;1.00;;;;;;;;6197957;23;44714;-83
2021/10/31 15:17:24;;;;;;;;;0.00;0.00;;;;;;;;6197733;22;45295;-83
2021/10/31 15:19:49;;;;;;;;;0.00;0.00;;;;;;;;6197673;22;45342;-83
2021/10/31 15:22:15;;;;;;;;;2.25;0.00;;;;;;;;6199314;23;44750;-83
2021/10/31 15:24:41;;;;;;;;;0.75;0.75;;;;;;;;6197275;22;45331;-83
2021/10/31 15:27:06;;;;;;;;;0.00;0.00;;;;;;;;6172940;23;45382;-83
2021/10/31 15:29:32;;;;;;;;;0.50;0.50;;;;;;;;6197572;23;45335;-83